sensor_id;sensor_type;location;lat;lon;timestamp;temperature;humidity
50989;DHT22;37008;52.210;21.112;2023-07-24T00:00:27;18.30;99.90
50989;DHT22;37008;52.210;21.112;2023-07-24T00:02:53;18.20;99.90
50989;DHT22;37008;52.210;21.112;2023-07-24T00:05:19;18.20;99.90
50989;DHT22;37008;52.210;21.112;2023-07-24T00:07:45;18.20;99.90
50989;DHT22;37008;52.210;21.112;2023-07-24T00:10:10;18.10;99.90
50989;DHT22;37008;52.210;21.112;2023-07-24T00:12:36;18.10;99.90
50989;DHT22;37008;52.210;21.112;2023-07-24T00:15:02;18.10;99.90
50989;DHT22;37008;52.210;21.112;2023-07-24T00:17:28;18.00;99.90
50989;DHT22;37008;52.210;21.112;2023-07-24T00:19:53;18.00;99.90
50989;DHT22;37008;52.210;21.112;2023-07-24T00:22:19;18.00;99.90
50989;DHT22;37008;52.210;21.112;2023-07-24T00:24:44;18.10;99.90
50989;DHT22;37008;52.210;21.112;2023-07-24T00:27:10;18.10;99.90
50989;DHT22;37008;52.210;21.112;2023-07-24T00:29:35;18.10;99.90
50989;DHT22;37008;52.210;21.112;2023-07-24T00:32:01;18.10;99.90
50989;DHT22;37008;52.210;21.112;2023-07-24T00:34:27;18.10;99.90
50989;DHT22;37008;52.210;21.112;2023-07-24T00:36:52;18.20;99.90
50989;DHT22;37008;52.210;21.112;2023-07-24T00:39:18;18.30;99.90
50989;DHT22;37008;52.210;21.112;2023-07-24T00:41:44;18.30;99.90
50989;DHT22;37008;52.210;21.112;2023-07-24T00:44:09;18.40;99.90
50989;DHT22;37008;52.210;21.112;2023-07-24T00:46:35;18.40;99.90
50989;DHT22;37008;52.210;21.112;2023-07-24T00:49:02;18.50;99.90
50989;DHT22;37008;52.210;21.112;2023-07-24T00:51:29;18.50;99.90
50989;DHT22;37008;52.210;21.112;2023-07-24T00:53:56;18.60;99.90
50989;DHT22;37008;52.210;21.112;2023-07-24T00:56:23;18.60;99.90
50989;DHT22;37008;52.210;21.112;2023-07-24T00:58:49;18.60;99.90
50989;DHT22;37008;52.210;21.112;2023-07-24T01:01:16;18.70;99.90
50989;DHT22;37008;52.210;21.112;2023-07-24T01:03:42;18.70;99.90
50989;DHT22;37008;52.210;21.112;2023-07-24T01:06:09;18.70;99.90
50989;DHT22;37008;52.210;21.112;2023-07-24T01:08:35;18.80;99.90
50989;DHT22;37008;52.210;21.112;2023-07-24T01:11:07;18.80;99.30
50989;DHT22;37008;52.210;21.112;2023-07-24T01:13:41;18.80;98.70
50989;DHT22;37008;52.210;21.112;2023-07-24T01:16:14;18.80;98.40
50989;DHT22;37008;52.210;21.112;2023-07-24T01:18:39;18.80;98.10
50989;DHT22;37008;52.210;21.112;2023-07-24T01:21:09;18.80;97.90
50989;DHT22;37008;52.210;21.112;2023-07-24T01:23:53;18.80;98.90
50989;DHT22;37008;52.210;21.112;2023-07-24T01:26:21;18.80;99.30
50989;DHT22;37008;52.210;21.112;2023-07-24T01:28:49;18.80;98.90
50989;DHT22;37008;52.210;21.112;2023-07-24T01:31:14;18.80;98.70
50989;DHT22;37008;52.210;21.112;2023-07-24T01:33:42;18.80;98.60
50989;DHT22;37008;52.210;21.112;2023-07-24T01:36:08;18.80;98.10
50989;DHT22;37008;52.210;21.112;2023-07-24T01:38:35;18.80;97.70
50989;DHT22;37008;52.210;21.112;2023-07-24T01:41:01;18.80;97.20
50989;DHT22;37008;52.210;21.112;2023-07-24T01:43:28;18.80;96.60
50989;DHT22;37008;52.210;21.112;2023-07-24T01:45:54;18.80;96.10
50989;DHT22;37008;52.210;21.112;2023-07-24T01:48:20;18.80;95.30
50989;DHT22;37008;52.210;21.112;2023-07-24T01:50:45;18.90;94.40
50989;DHT22;37008;52.210;21.112;2023-07-24T01:53:11;18.90;93.60
50989;DHT22;37008;52.210;21.112;2023-07-24T01:55:36;18.90;92.70
50989;DHT22;37008;52.210;21.112;2023-07-24T01:58:02;18.90;92.00
50989;DHT22;37008;52.210;21.112;2023-07-24T02:00:28;19.00;91.40
50989;DHT22;37008;52.210;21.112;2023-07-24T02:02:53;19.00;91.10
50989;DHT22;37008;52.210;21.112;2023-07-24T02:05:19;19.00;90.20
50989;DHT22;37008;52.210;21.112;2023-07-24T02:07:44;19.10;89.10
50989;DHT22;37008;52.210;21.112;2023-07-24T02:10:10;19.10;88.00
50989;DHT22;37008;52.210;21.112;2023-07-24T02:12:36;19.10;87.00
50989;DHT22;37008;52.210;21.112;2023-07-24T02:15:01;19.10;86.10
50989;DHT22;37008;52.210;21.112;2023-07-24T02:17:27;19.10;86.10
50989;DHT22;37008;52.210;21.112;2023-07-24T02:19:52;19.20;84.80
50989;DHT22;37008;52.210;21.112;2023-07-24T02:22:19;19.20;84.00
50989;DHT22;37008;52.210;21.112;2023-07-24T02:24:44;19.20;83.10
50989;DHT22;37008;52.210;21.112;2023-07-24T02:27:12;19.20;82.60
50989;DHT22;37008;52.210;21.112;2023-07-24T02:29:39;19.20;82.00
50989;DHT22;37008;52.210;21.112;2023-07-24T02:32:05;19.10;81.40
50989;DHT22;37008;52.210;21.112;2023-07-24T02:34:30;19.10;81.20
50989;DHT22;37008;52.210;21.112;2023-07-24T02:36:56;19.10;81.60
50989;DHT22;37008;52.210;21.112;2023-07-24T02:39:21;19.00;82.20
50989;DHT22;37008;52.210;21.112;2023-07-24T02:41:50;18.90;82.70
50989;DHT22;37008;52.210;21.112;2023-07-24T02:44:15;18.80;83.10
50989;DHT22;37008;52.210;21.112;2023-07-24T02:46:41;18.70;83.00
50989;DHT22;37008;52.210;21.112;2023-07-24T02:49:07;18.70;83.20
50989;DHT22;37008;52.210;21.112;2023-07-24T02:51:33;18.70;84.00
50989;DHT22;37008;52.210;21.112;2023-07-24T02:53:58;18.60;84.30
50989;DHT22;37008;52.210;21.112;2023-07-24T02:56:24;18.60;83.60
50989;DHT22;37008;52.210;21.112;2023-07-24T02:58:49;18.70;82.80
50989;DHT22;37008;52.210;21.112;2023-07-24T03:01:15;18.70;82.10
50989;DHT22;37008;52.210;21.112;2023-07-24T03:03:41;18.70;81.60
50989;DHT22;37008;52.210;21.112;2023-07-24T03:06:07;18.70;80.50
50989;DHT22;37008;52.210;21.112;2023-07-24T03:08:33;18.70;79.90
50989;DHT22;37008;52.210;21.112;2023-07-24T03:10:59;18.80;80.00
50989;DHT22;37008;52.210;21.112;2023-07-24T03:13:25;18.90;81.50
50989;DHT22;37008;52.210;21.112;2023-07-24T03:15:55;18.90;80.70
50989;DHT22;37008;52.210;21.112;2023-07-24T03:18:21;18.90;80.30
50989;DHT22;37008;52.210;21.112;2023-07-24T03:20:47;18.80;80.50
50989;DHT22;37008;52.210;21.112;2023-07-24T03:23:13;18.90;79.90
50989;DHT22;37008;52.210;21.112;2023-07-24T03:25:38;19.00;79.00
50989;DHT22;37008;52.210;21.112;2023-07-24T03:28:04;19.00;78.10
50989;DHT22;37008;52.210;21.112;2023-07-24T03:30:30;19.10;78.00
50989;DHT22;37008;52.210;21.112;2023-07-24T03:32:55;19.10;76.30
50989;DHT22;37008;52.210;21.112;2023-07-24T03:35:21;19.30;75.40
50989;DHT22;37008;52.210;21.112;2023-07-24T03:37:46;19.30;74.70
50989;DHT22;37008;52.210;21.112;2023-07-24T03:40:12;19.40;74.50
50989;DHT22;37008;52.210;21.112;2023-07-24T03:42:38;19.40;74.30
50989;DHT22;37008;52.210;21.112;2023-07-24T03:45:04;19.40;74.60
50989;DHT22;37008;52.210;21.112;2023-07-24T03:47:29;19.40;75.10
50989;DHT22;37008;52.210;21.112;2023-07-24T03:49:55;19.50;74.90
50989;DHT22;37008;52.210;21.112;2023-07-24T03:52:21;19.60;73.90
50989;DHT22;37008;52.210;21.112;2023-07-24T03:54:46;19.60;73.80
50989;DHT22;37008;52.210;21.112;2023-07-24T03:57:12;19.60;74.20
50989;DHT22;37008;52.210;21.112;2023-07-24T03:59:38;19.60;74.00
50989;DHT22;37008;52.210;21.112;2023-07-24T04:02:04;19.70;73.90
50989;DHT22;37008;52.210;21.112;2023-07-24T04:04:29;19.70;73.80
50989;DHT22;37008;52.210;21.112;2023-07-24T04:06:55;19.70;74.00
50989;DHT22;37008;52.210;21.112;2023-07-24T04:09:20;19.70;73.80
50989;DHT22;37008;52.210;21.112;2023-07-24T04:11:46;19.70;74.20
50989;DHT22;37008;52.210;21.112;2023-07-24T04:14:12;19.70;74.20
50989;DHT22;37008;52.210;21.112;2023-07-24T04:16:37;19.70;73.90
50989;DHT22;37008;52.210;21.112;2023-07-24T04:19:03;19.70;74.00
50989;DHT22;37008;52.210;21.112;2023-07-24T04:21:28;19.70;74.00
50989;DHT22;37008;52.210;21.112;2023-07-24T04:23:54;19.70;74.40
50989;DHT22;37008;52.210;21.112;2023-07-24T04:26:20;19.70;74.20
50989;DHT22;37008;52.210;21.112;2023-07-24T04:28:45;19.80;73.80
50989;DHT22;37008;52.210;21.112;2023-07-24T04:31:11;19.80;73.50
50989;DHT22;37008;52.210;21.112;2023-07-24T04:33:36;19.90;73.50
50989;DHT22;37008;52.210;21.112;2023-07-24T04:36:02;20.00;73.80
50989;DHT22;37008;52.210;21.112;2023-07-24T04:38:28;20.00;73.70
50989;DHT22;37008;52.210;21.112;2023-07-24T04:40:53;20.10;73.40
50989;DHT22;37008;52.210;21.112;2023-07-24T04:43:19;20.10;73.10
50989;DHT22;37008;52.210;21.112;2023-07-24T04:45:45;20.20;72.90
50989;DHT22;37008;52.210;21.112;2023-07-24T04:48:10;20.20;72.30
50989;DHT22;37008;52.210;21.112;2023-07-24T04:50:36;20.20;72.10
50989;DHT22;37008;52.210;21.112;2023-07-24T04:53:01;20.20;72.50
50989;DHT22;37008;52.210;21.112;2023-07-24T04:55:27;20.20;72.60
50989;DHT22;37008;52.210;21.112;2023-07-24T04:57:53;20.20;72.70
50989;DHT22;37008;52.210;21.112;2023-07-24T05:00:18;20.20;72.60
50989;DHT22;37008;52.210;21.112;2023-07-24T05:02:44;20.20;73.10
50989;DHT22;37008;52.210;21.112;2023-07-24T05:05:09;20.30;73.00
50989;DHT22;37008;52.210;21.112;2023-07-24T05:07:35;20.40;72.50
50989;DHT22;37008;52.210;21.112;2023-07-24T05:10:00;20.60;71.70
50989;DHT22;37008;52.210;21.112;2023-07-24T05:12:26;20.70;71.30
50989;DHT22;37008;52.210;21.112;2023-07-24T05:14:52;21.00;71.60
50989;DHT22;37008;52.210;21.112;2023-07-24T05:17:17;21.20;71.00
50989;DHT22;37008;52.210;21.112;2023-07-24T05:19:43;21.30;69.80
50989;DHT22;37008;52.210;21.112;2023-07-24T05:22:09;21.50;70.20
50989;DHT22;37008;52.210;21.112;2023-07-24T05:24:36;21.50;70.90
50989;DHT22;37008;52.210;21.112;2023-07-24T05:27:02;21.50;70.00
50989;DHT22;37008;52.210;21.112;2023-07-24T05:29:28;21.50;68.60
50989;DHT22;37008;52.210;21.112;2023-07-24T05:31:53;21.50;69.90
50989;DHT22;37008;52.210;21.112;2023-07-24T05:34:19;21.50;71.50
50989;DHT22;37008;52.210;21.112;2023-07-24T05:36:44;21.50;70.80
50989;DHT22;37008;52.210;21.112;2023-07-24T05:39:10;21.40;70.00
50989;DHT22;37008;52.210;21.112;2023-07-24T05:41:36;21.40;69.80
50989;DHT22;37008;52.210;21.112;2023-07-24T05:44:02;21.40;68.80
50989;DHT22;37008;52.210;21.112;2023-07-24T05:46:28;21.40;68.10
50989;DHT22;37008;52.210;21.112;2023-07-24T05:48:53;21.30;68.10
50989;DHT22;37008;52.210;21.112;2023-07-24T05:51:19;21.30;67.90
50989;DHT22;37008;52.210;21.112;2023-07-24T05:53:44;21.30;68.60
50989;DHT22;37008;52.210;21.112;2023-07-24T05:56:10;21.30;69.70
50989;DHT22;37008;52.210;21.112;2023-07-24T05:58:35;21.20;70.00
50989;DHT22;37008;52.210;21.112;2023-07-24T06:01:01;21.20;70.90
50989;DHT22;37008;52.210;21.112;2023-07-24T06:03:27;21.30;71.40
50989;DHT22;37008;52.210;21.112;2023-07-24T06:05:53;21.30;71.40
50989;DHT22;37008;52.210;21.112;2023-07-24T06:08:20;21.40;70.70
50989;DHT22;37008;52.210;21.112;2023-07-24T06:10:47;21.50;69.10
50989;DHT22;37008;52.210;21.112;2023-07-24T06:13:13;21.50;68.20
50989;DHT22;37008;52.210;21.112;2023-07-24T06:15:39;21.60;67.10
50989;DHT22;37008;52.210;21.112;2023-07-24T06:18:04;21.70;66.00
50989;DHT22;37008;52.210;21.112;2023-07-24T06:20:30;21.70;65.60
50989;DHT22;37008;52.210;21.112;2023-07-24T06:22:55;21.60;65.60
50989;DHT22;37008;52.210;21.112;2023-07-24T06:25:21;21.60;65.50
50989;DHT22;37008;52.210;21.112;2023-07-24T06:27:46;21.50;65.30
50989;DHT22;37008;52.210;21.112;2023-07-24T06:30:12;21.50;64.90
50989;DHT22;37008;52.210;21.112;2023-07-24T06:32:37;21.60;64.10
50989;DHT22;37008;52.210;21.112;2023-07-24T06:35:03;21.60;64.30
50989;DHT22;37008;52.210;21.112;2023-07-24T06:37:29;21.60;64.50
50989;DHT22;37008;52.210;21.112;2023-07-24T06:39:54;21.60;64.90
50989;DHT22;37008;52.210;21.112;2023-07-24T06:42:20;21.70;66.20
50989;DHT22;37008;52.210;21.112;2023-07-24T06:44:46;21.90;66.50
50989;DHT22;37008;52.210;21.112;2023-07-24T06:47:11;22.00;64.70
50989;DHT22;37008;52.210;21.112;2023-07-24T06:49:37;22.10;63.80
50989;DHT22;37008;52.210;21.112;2023-07-24T06:52:02;22.20;64.30
50989;DHT22;37008;52.210;21.112;2023-07-24T06:54:28;22.20;64.60
50989;DHT22;37008;52.210;21.112;2023-07-24T06:56:54;22.30;63.40
50989;DHT22;37008;52.210;21.112;2023-07-24T06:59:19;22.30;62.30
50989;DHT22;37008;52.210;21.112;2023-07-24T07:01:45;22.40;61.90
50989;DHT22;37008;52.210;21.112;2023-07-24T07:04:10;22.40;61.20
50989;DHT22;37008;52.210;21.112;2023-07-24T07:06:36;22.50;61.00
50989;DHT22;37008;52.210;21.112;2023-07-24T07:09:01;22.60;61.80
50989;DHT22;37008;52.210;21.112;2023-07-24T07:11:27;22.80;62.40
50989;DHT22;37008;52.210;21.112;2023-07-24T07:13:53;22.90;61.60
50989;DHT22;37008;52.210;21.112;2023-07-24T07:16:18;23.00;60.30
50989;DHT22;37008;52.210;21.112;2023-07-24T07:18:44;23.10;59.50
50989;DHT22;37008;52.210;21.112;2023-07-24T07:21:10;23.30;58.90
50989;DHT22;37008;52.210;21.112;2023-07-24T07:23:37;23.30;58.50
50989;DHT22;37008;52.210;21.112;2023-07-24T07:26:02;23.50;58.90
50989;DHT22;37008;52.210;21.112;2023-07-24T07:28:28;23.60;59.70
50989;DHT22;37008;52.210;21.112;2023-07-24T07:30:54;23.80;58.40
50989;DHT22;37008;52.210;21.112;2023-07-24T07:33:19;23.90;57.50
50989;DHT22;37008;52.210;21.112;2023-07-24T07:35:47;24.10;57.00
50989;DHT22;37008;52.210;21.112;2023-07-24T07:38:12;24.20;56.20
50989;DHT22;37008;52.210;21.112;2023-07-24T07:40:38;24.30;56.00
50989;DHT22;37008;52.210;21.112;2023-07-24T07:43:07;24.40;55.90
50989;DHT22;37008;52.210;21.112;2023-07-24T07:45:32;24.30;55.20
50989;DHT22;37008;52.210;21.112;2023-07-24T07:47:58;24.30;55.00
50989;DHT22;37008;52.210;21.112;2023-07-24T07:50:24;24.30;54.80
50989;DHT22;37008;52.210;21.112;2023-07-24T07:52:51;24.30;54.40
50989;DHT22;37008;52.210;21.112;2023-07-24T07:55:18;24.30;54.50
50989;DHT22;37008;52.210;21.112;2023-07-24T07:57:44;24.30;54.50
50989;DHT22;37008;52.210;21.112;2023-07-24T08:00:10;24.40;54.70
50989;DHT22;37008;52.210;21.112;2023-07-24T08:02:35;24.40;55.50
50989;DHT22;37008;52.210;21.112;2023-07-24T08:05:06;24.60;55.40
50989;DHT22;37008;52.210;21.112;2023-07-24T08:07:32;24.70;55.20
50989;DHT22;37008;52.210;21.112;2023-07-24T08:09:58;24.70;55.20
50989;DHT22;37008;52.210;21.112;2023-07-24T08:12:23;24.90;55.60
50989;DHT22;37008;52.210;21.112;2023-07-24T08:14:49;25.00;56.10
50989;DHT22;37008;52.210;21.112;2023-07-24T08:17:14;25.20;56.30
50989;DHT22;37008;52.210;21.112;2023-07-24T08:19:40;25.30;55.40
50989;DHT22;37008;52.210;21.112;2023-07-24T08:22:05;25.30;54.00
50989;DHT22;37008;52.210;21.112;2023-07-24T08:24:34;25.30;53.90
50989;DHT22;37008;52.210;21.112;2023-07-24T08:27:00;25.40;54.40
50989;DHT22;37008;52.210;21.112;2023-07-24T08:29:26;25.40;54.00
50989;DHT22;37008;52.210;21.112;2023-07-24T08:31:52;25.40;53.10
50989;DHT22;37008;52.210;21.112;2023-07-24T08:34:18;25.50;52.70
50989;DHT22;37008;52.210;21.112;2023-07-24T08:36:43;25.70;52.40
50989;DHT22;37008;52.210;21.112;2023-07-24T08:39:09;25.90;52.60
50989;DHT22;37008;52.210;21.112;2023-07-24T08:41:36;26.00;51.60
50989;DHT22;37008;52.210;21.112;2023-07-24T08:44:07;26.10;51.10
50989;DHT22;37008;52.210;21.112;2023-07-24T08:46:36;26.20;51.20
50989;DHT22;37008;52.210;21.112;2023-07-24T08:49:02;26.40;51.60
50989;DHT22;37008;52.210;21.112;2023-07-24T08:51:29;26.50;52.70
50989;DHT22;37008;52.210;21.112;2023-07-24T08:53:56;26.60;51.80
50989;DHT22;37008;52.210;21.112;2023-07-24T08:56:22;26.60;51.00
50989;DHT22;37008;52.210;21.112;2023-07-24T08:58:48;26.70;50.50
50989;DHT22;37008;52.210;21.112;2023-07-24T09:01:14;26.90;50.40
50989;DHT22;37008;52.210;21.112;2023-07-24T09:03:39;27.00;50.90
50989;DHT22;37008;52.210;21.112;2023-07-24T09:06:05;27.10;51.20
50989;DHT22;37008;52.210;21.112;2023-07-24T09:08:36;27.20;50.70
50989;DHT22;37008;52.210;21.112;2023-07-24T09:11:03;27.20;49.30
50989;DHT22;37008;52.210;21.112;2023-07-24T09:13:29;27.10;48.80
50989;DHT22;37008;52.210;21.112;2023-07-24T09:15:55;27.00;48.80
50989;DHT22;37008;52.210;21.112;2023-07-24T09:18:21;26.90;49.20
50989;DHT22;37008;52.210;21.112;2023-07-24T09:20:47;26.70;49.10
50989;DHT22;37008;52.210;21.112;2023-07-24T09:23:14;26.50;49.30
50989;DHT22;37008;52.210;21.112;2023-07-24T09:25:42;26.50;50.40
50989;DHT22;37008;52.210;21.112;2023-07-24T09:28:17;26.50;51.80
50989;DHT22;37008;52.210;21.112;2023-07-24T09:30:57;26.50;51.20
50989;DHT22;37008;52.210;21.112;2023-07-24T09:33:36;26.50;51.30
50989;DHT22;37008;52.210;21.112;2023-07-24T09:36:06;26.60;50.90
50989;DHT22;37008;52.210;21.112;2023-07-24T09:38:37;26.50;49.80
50989;DHT22;37008;52.210;21.112;2023-07-24T09:41:03;26.50;49.30
50989;DHT22;37008;52.210;21.112;2023-07-24T09:43:29;26.50;49.40
50989;DHT22;37008;52.210;21.112;2023-07-24T09:45:56;26.50;50.30
50989;DHT22;37008;52.210;21.112;2023-07-24T09:48:26;26.60;51.90
50989;DHT22;37008;52.210;21.112;2023-07-24T09:50:54;26.70;53.00
50989;DHT22;37008;52.210;21.112;2023-07-24T09:56:02;26.90;52.00
50989;DHT22;37008;52.210;21.112;2023-07-24T09:58:29;27.10;51.60
50989;DHT22;37008;52.210;21.112;2023-07-24T10:00:57;27.10;51.10
50989;DHT22;37008;52.210;21.112;2023-07-24T10:03:23;27.10;49.10
50989;DHT22;37008;52.210;21.112;2023-07-24T10:05:49;27.10;49.40
50989;DHT22;37008;52.210;21.112;2023-07-24T10:08:18;27.20;50.70
50989;DHT22;37008;52.210;21.112;2023-07-24T10:10:44;27.30;50.90
50989;DHT22;37008;52.210;21.112;2023-07-24T10:13:12;27.30;50.30
50989;DHT22;37008;52.210;21.112;2023-07-24T10:15:41;27.40;49.50
50989;DHT22;37008;52.210;21.112;2023-07-24T10:18:08;27.40;48.70
50989;DHT22;37008;52.210;21.112;2023-07-24T10:20:38;27.40;49.60
50989;DHT22;37008;52.210;21.112;2023-07-24T10:23:05;27.40;51.60
50989;DHT22;37008;52.210;21.112;2023-07-24T10:25:32;27.50;52.30
50989;DHT22;37008;52.210;21.112;2023-07-24T10:28:06;27.60;52.00
50989;DHT22;37008;52.210;21.112;2023-07-24T10:30:37;27.80;52.80
50989;DHT22;37008;52.210;21.112;2023-07-24T10:33:07;28.00;51.10
50989;DHT22;37008;52.210;21.112;2023-07-24T10:35:46;28.10;48.50
50989;DHT22;37008;52.210;21.112;2023-07-24T10:38:13;28.20;47.70
50989;DHT22;37008;52.210;21.112;2023-07-24T10:40:41;28.30;49.00
50989;DHT22;37008;52.210;21.112;2023-07-24T10:43:17;28.40;49.60
50989;DHT22;37008;52.210;21.112;2023-07-24T10:45:52;28.50;49.70
50989;DHT22;37008;52.210;21.112;2023-07-24T10:48:19;28.50;49.10
50989;DHT22;37008;52.210;21.112;2023-07-24T10:50:46;28.60;49.20
50989;DHT22;37008;52.210;21.112;2023-07-24T10:53:16;28.60;48.90
50989;DHT22;37008;52.210;21.112;2023-07-24T10:55:42;28.60;49.40
50989;DHT22;37008;52.210;21.112;2023-07-24T10:58:08;28.50;49.70
50989;DHT22;37008;52.210;21.112;2023-07-24T11:00:34;28.50;50.80
50989;DHT22;37008;52.210;21.112;2023-07-24T11:03:00;28.50;51.10
50989;DHT22;37008;52.210;21.112;2023-07-24T11:05:26;28.50;50.90
50989;DHT22;37008;52.210;21.112;2023-07-24T11:07:52;28.40;50.30
50989;DHT22;37008;52.210;21.112;2023-07-24T11:10:19;28.40;49.20
50989;DHT22;37008;52.210;21.112;2023-07-24T11:12:45;28.40;49.30
50989;DHT22;37008;52.210;21.112;2023-07-24T11:15:12;28.50;48.20
50989;DHT22;37008;52.210;21.112;2023-07-24T11:17:41;28.60;46.30
50989;DHT22;37008;52.210;21.112;2023-07-24T11:20:12;28.70;46.70
50989;DHT22;37008;52.210;21.112;2023-07-24T11:22:43;28.90;46.70
50989;DHT22;37008;52.210;21.112;2023-07-24T11:25:10;28.90;46.90
50989;DHT22;37008;52.210;21.112;2023-07-24T11:27:43;29.00;47.40
50989;DHT22;37008;52.210;21.112;2023-07-24T11:30:12;29.00;45.60
50989;DHT22;37008;52.210;21.112;2023-07-24T11:32:42;28.90;45.90
50989;DHT22;37008;52.210;21.112;2023-07-24T11:35:08;29.00;46.50
50989;DHT22;37008;52.210;21.112;2023-07-24T11:37:35;29.10;46.70
50989;DHT22;37008;52.210;21.112;2023-07-24T11:40:03;29.10;45.60
50989;DHT22;37008;52.210;21.112;2023-07-24T11:42:36;29.10;45.10
50989;DHT22;37008;52.210;21.112;2023-07-24T11:45:02;29.00;45.70
50989;DHT22;37008;52.210;21.112;2023-07-24T11:47:31;29.00;45.60
50989;DHT22;37008;52.210;21.112;2023-07-24T11:50:00;29.00;44.10
50989;DHT22;37008;52.210;21.112;2023-07-24T11:52:36;28.80;43.50
50989;DHT22;37008;52.210;21.112;2023-07-24T11:55:04;28.70;43.70
50989;DHT22;37008;52.210;21.112;2023-07-24T11:57:30;28.70;44.20
50989;DHT22;37008;52.210;21.112;2023-07-24T11:59:56;28.80;45.00
50989;DHT22;37008;52.210;21.112;2023-07-24T12:02:25;29.00;45.50
50989;DHT22;37008;52.210;21.112;2023-07-24T12:05:00;29.30;45.90
50989;DHT22;37008;52.210;21.112;2023-07-24T12:07:35;29.50;45.40
50989;DHT22;37008;52.210;21.112;2023-07-24T12:10:03;29.60;45.20
50989;DHT22;37008;52.210;21.112;2023-07-24T12:12:46;29.80;45.00
50989;DHT22;37008;52.210;21.112;2023-07-24T12:15:12;29.80;44.20
50989;DHT22;37008;52.210;21.112;2023-07-24T12:17:39;29.90;43.70
50989;DHT22;37008;52.210;21.112;2023-07-24T12:20:06;29.80;43.30
50989;DHT22;37008;52.210;21.112;2023-07-24T12:22:34;29.90;43.60
50989;DHT22;37008;52.210;21.112;2023-07-24T12:25:00;29.90;43.70
50989;DHT22;37008;52.210;21.112;2023-07-24T12:27:26;29.70;43.60
50989;DHT22;37008;52.210;21.112;2023-07-24T12:29:52;29.70;43.80
50989;DHT22;37008;52.210;21.112;2023-07-24T12:32:17;29.60;44.80
50989;DHT22;37008;52.210;21.112;2023-07-24T12:34:46;29.70;45.10
50989;DHT22;37008;52.210;21.112;2023-07-24T12:37:11;29.80;44.80
50989;DHT22;37008;52.210;21.112;2023-07-24T12:39:37;29.90;44.40
50989;DHT22;37008;52.210;21.112;2023-07-24T12:42:04;30.00;44.10
50989;DHT22;37008;52.210;21.112;2023-07-24T12:44:29;30.00;43.20
50989;DHT22;37008;52.210;21.112;2023-07-24T12:46:55;29.90;42.60
50989;DHT22;37008;52.210;21.112;2023-07-24T12:49:20;29.80;42.20
50989;DHT22;37008;52.210;21.112;2023-07-24T12:51:46;29.90;42.20
50989;DHT22;37008;52.210;21.112;2023-07-24T12:54:12;30.00;42.40
50989;DHT22;37008;52.210;21.112;2023-07-24T12:56:37;30.20;41.90
50989;DHT22;37008;52.210;21.112;2023-07-24T12:59:03;30.20;42.60
50989;DHT22;37008;52.210;21.112;2023-07-24T13:01:29;30.20;43.40
50989;DHT22;37008;52.210;21.112;2023-07-24T13:03:55;30.10;43.70
50989;DHT22;37008;52.210;21.112;2023-07-24T13:06:21;30.10;44.30
50989;DHT22;37008;52.210;21.112;2023-07-24T13:08:47;30.10;44.60
50989;DHT22;37008;52.210;21.112;2023-07-24T13:11:13;30.00;43.20
50989;DHT22;37008;52.210;21.112;2023-07-24T13:13:39;30.00;43.50
50989;DHT22;37008;52.210;21.112;2023-07-24T13:16:04;29.90;43.80
50989;DHT22;37008;52.210;21.112;2023-07-24T13:18:30;30.00;44.30
50989;DHT22;37008;52.210;21.112;2023-07-24T13:20:56;30.10;43.80
50989;DHT22;37008;52.210;21.112;2023-07-24T13:23:22;30.20;43.10
50989;DHT22;37008;52.210;21.112;2023-07-24T13:25:47;30.30;42.70
50989;DHT22;37008;52.210;21.112;2023-07-24T13:28:13;30.40;42.60
50989;DHT22;37008;52.210;21.112;2023-07-24T13:30:39;30.60;43.30
50989;DHT22;37008;52.210;21.112;2023-07-24T13:33:04;30.70;42.80
50989;DHT22;37008;52.210;21.112;2023-07-24T13:35:30;30.70;42.70
50989;DHT22;37008;52.210;21.112;2023-07-24T13:37:55;30.60;42.50
50989;DHT22;37008;52.210;21.112;2023-07-24T13:40:21;30.40;42.60
50989;DHT22;37008;52.210;21.112;2023-07-24T13:42:46;30.30;43.00
50989;DHT22;37008;52.210;21.112;2023-07-24T13:45:12;30.10;42.90
50989;DHT22;37008;52.210;21.112;2023-07-24T13:47:39;29.80;42.20
50989;DHT22;37008;52.210;21.112;2023-07-24T13:50:05;29.60;42.80
50989;DHT22;37008;52.210;21.112;2023-07-24T13:52:30;29.50;44.40
50989;DHT22;37008;52.210;21.112;2023-07-24T13:54:56;29.50;45.30
50989;DHT22;37008;52.210;21.112;2023-07-24T13:57:21;29.70;45.30
50989;DHT22;37008;52.210;21.112;2023-07-24T13:59:47;30.00;44.40
50989;DHT22;37008;52.210;21.112;2023-07-24T14:02:13;30.10;43.90
50989;DHT22;37008;52.210;21.112;2023-07-24T14:04:39;30.30;43.60
50989;DHT22;37008;52.210;21.112;2023-07-24T14:07:04;30.40;42.20
50989;DHT22;37008;52.210;21.112;2023-07-24T14:09:30;30.50;41.00
50989;DHT22;37008;52.210;21.112;2023-07-24T14:11:58;30.60;41.20
50989;DHT22;37008;52.210;21.112;2023-07-24T14:14:23;30.60;41.90
50989;DHT22;37008;52.210;21.112;2023-07-24T14:16:50;30.80;43.00
50989;DHT22;37008;52.210;21.112;2023-07-24T14:19:15;31.20;43.70
50989;DHT22;37008;52.210;21.112;2023-07-24T14:21:41;31.90;42.10
50989;DHT22;37008;52.210;21.112;2023-07-24T14:24:07;32.80;39.10
50989;DHT22;37008;52.210;21.112;2023-07-24T14:26:32;33.30;36.90
50989;DHT22;37008;52.210;21.112;2023-07-24T14:28:58;33.90;34.90
50989;DHT22;37008;52.210;21.112;2023-07-24T14:31:24;34.00;34.50
50989;DHT22;37008;52.210;21.112;2023-07-24T14:33:50;34.20;34.40
50989;DHT22;37008;52.210;21.112;2023-07-24T14:36:16;34.70;33.70
50989;DHT22;37008;52.210;21.112;2023-07-24T14:38:41;35.00;32.40
50989;DHT22;37008;52.210;21.112;2023-07-24T14:41:07;34.90;31.30
50989;DHT22;37008;52.210;21.112;2023-07-24T14:43:32;34.40;30.90
50989;DHT22;37008;52.210;21.112;2023-07-24T14:45:58;34.00;31.50
50989;DHT22;37008;52.210;21.112;2023-07-24T14:48:24;33.90;31.80
50989;DHT22;37008;52.210;21.112;2023-07-24T14:50:49;33.80;32.00
50989;DHT22;37008;52.210;21.112;2023-07-24T14:53:16;33.70;32.00
50989;DHT22;37008;52.210;21.112;2023-07-24T14:55:42;33.70;32.20
50989;DHT22;37008;52.210;21.112;2023-07-24T14:58:08;33.60;32.20
50989;DHT22;37008;52.210;21.112;2023-07-24T15:00:34;33.40;32.90
50989;DHT22;37008;52.210;21.112;2023-07-24T15:02:59;33.10;34.10
50989;DHT22;37008;52.210;21.112;2023-07-24T15:05:25;32.80;35.40
50989;DHT22;37008;52.210;21.112;2023-07-24T15:07:51;32.60;36.10
50989;DHT22;37008;52.210;21.112;2023-07-24T15:10:17;32.20;36.50
50989;DHT22;37008;52.210;21.112;2023-07-24T15:12:42;31.80;36.70